createdAt,value
2018-12-01T00:01:35.517Z,100721.07
2018-12-01T00:09:56.550Z,100722.88
2018-12-01T00:18:17.556Z,100728.70
2018-12-01T00:26:38.619Z,100732.07
2018-12-01T00:34:59.671Z,100725.35
2018-12-01T00:43:20.702Z,100723.55
2018-12-01T00:51:41.688Z,100735.45
2018-12-01T01:00:02.696Z,100736.13
2018-12-01T01:08:24.024Z,100727.73
2018-12-01T01:16:45.051Z,100725.81
2018-12-01T01:25:06.067Z,100725.76
2018-12-01T01:33:27.094Z,100728.89
2018-12-01T01:41:48.085Z,100742.06
2018-12-01T01:50:09.087Z,100744.83
2018-12-01T01:58:30.117Z,100736.75
2018-12-01T02:06:51.143Z,100724.97
2018-12-01T02:15:12.155Z,100723.81
2018-12-01T02:23:33.174Z,100725.80
2018-12-01T02:31:54.184Z,100721.41
2018-12-01T02:40:15.210Z,100720.53
2018-12-01T02:48:36.267Z,100710.80
2018-12-01T02:56:57.261Z,100719.11
2018-12-01T03:05:18.290Z,100715.23
2018-12-01T03:13:39.323Z,100714.00
2018-12-01T03:22:00.308Z,100710.39
2018-12-01T03:30:21.291Z,100709.05
2018-12-01T03:38:42.304Z,100713.30
2018-12-01T03:47:03.331Z,100712.90
2018-12-01T03:55:24.331Z,100716.72
2018-12-01T04:03:45.316Z,100726.71
2018-12-01T04:12:06.323Z,100730.28
2018-12-01T04:20:27.431Z,100733.59
2018-12-01T04:28:48.458Z,100732.28
2018-12-01T04:37:09.471Z,100736.97
2018-12-01T04:45:30.498Z,100751.69
2018-12-01T04:53:51.524Z,100755.05
2018-12-01T05:02:12.509Z,100764.11
2018-12-01T05:10:33.533Z,100766.11
2018-12-01T05:18:54.520Z,100760.78
2018-12-01T05:27:15.599Z,100777.52
2018-12-01T05:35:36.599Z,100768.89
2018-12-01T05:43:57.603Z,100761.40
2018-12-01T05:52:18.604Z,100768.28
2018-12-01T06:00:39.680Z,100770.13
2018-12-01T06:09:00.668Z,100761.80
2018-12-01T06:17:21.648Z,100755.99
2018-12-01T06:25:42.655Z,100738.34
2018-12-01T06:34:03.686Z,100734.47
2018-12-01T06:42:24.676Z,100745.63
2018-12-01T06:50:45.713Z,100754.77
2018-12-01T06:59:06.723Z,100756.69
2018-12-01T07:07:27.727Z,100760.42
2018-12-01T07:15:48.758Z,100758.55
2018-12-01T07:24:09.811Z,100758.67
2018-12-01T07:32:31.146Z,100761.75
2018-12-01T07:40:52.169Z,100757.67
2018-12-01T07:49:13.200Z,100761.76
2018-12-01T07:57:34.231Z,100754.11
2018-12-01T08:05:55.316Z,100750.64
2018-12-01T08:14:16.330Z,100755.31
2018-12-01T08:22:38.356Z,100749.84
2018-12-01T08:30:59.488Z,100751.60
2018-12-01T08:39:20.827Z,100743.25
2018-12-01T08:47:41.840Z,100738.33
2018-12-01T08:56:06.812Z,100746.84
2018-12-01T09:04:27.821Z,100759.84
2018-12-01T09:12:49.205Z,100759.88
2018-12-01T09:21:10.197Z,100771.63
2018-12-01T09:29:31.222Z,100780.55
2018-12-01T09:37:52.227Z,100762.66
2018-12-01T09:46:13.486Z,100769.70
2018-12-01T09:54:34.841Z,100748.64
2018-12-01T10:02:55.867Z,100749.19
2018-12-01T10:11:16.877Z,100726.59
2018-12-01T10:19:38.275Z,100712.58
2018-12-01T10:27:59.306Z,100707.20
2018-12-01T10:36:20.324Z,100692.28
2018-12-01T10:44:41.327Z,100684.20
2018-12-01T10:53:02.332Z,100698.69
2018-12-01T11:01:23.358Z,100688.70
2018-12-01T11:09:44.375Z,100693.19
2018-12-01T11:18:05.360Z,100685.41
2018-12-01T11:26:26.382Z,100670.56
2018-12-01T11:34:47.412Z,100668.63
2018-12-01T11:43:08.411Z,100653.95
2018-12-01T11:51:29.498Z,100639.07
2018-12-01T11:59:50.503Z,100623.01
2018-12-01T12:08:11.511Z,100598.39
2018-12-01T12:16:32.522Z,100592.64
2018-12-01T12:24:53.533Z,100580.71
2018-12-01T12:33:14.596Z,100579.12
2018-12-01T12:41:35.589Z,100579.11
2018-12-01T12:49:56.614Z,100566.28
2018-12-01T12:58:17.643Z,100559.83
2018-12-01T13:06:38.633Z,100548.70
2018-12-01T13:14:59.658Z,100532.17
2018-12-01T13:23:20.686Z,100534.81
2018-12-01T13:31:41.674Z,100534.32
2018-12-01T13:40:02.702Z,100535.55
2018-12-01T13:48:23.706Z,100518.63
2018-12-01T13:56:44.730Z,100519.30
2018-12-01T14:05:05.735Z,100511.77
2018-12-01T14:13:26.759Z,100513.10
2018-12-01T14:21:47.787Z,100500.15
2018-12-01T14:30:08.776Z,100493.35
2018-12-01T14:38:29.788Z,100483.12
2018-12-01T14:46:50.800Z,100471.47
2018-12-01T14:55:11.804Z,100474.75
2018-12-01T15:03:32.834Z,100462.09
2018-12-01T15:11:53.845Z,100452.61
2018-12-01T15:20:14.869Z,100453.14
2018-12-01T15:28:35.875Z,100464.24
2018-12-01T15:36:56.891Z,100445.00
2018-12-01T15:45:17.902Z,100440.22
2018-12-01T15:53:38.947Z,100438.12
2018-12-01T16:01:59.940Z,100417.03
2018-12-01T16:10:20.926Z,100418.59
2018-12-01T16:18:41.954Z,100404.70
2018-12-01T16:27:02.966Z,100395.59
2018-12-01T16:35:24.012Z,100381.97
2018-12-01T16:43:45.038Z,100372.95
2018-12-01T16:52:06.032Z,100372.89
2018-12-01T17:00:27.067Z,100361.45
2018-12-01T17:08:48.074Z,100348.04
2018-12-01T17:17:09.102Z,100331.84
2018-12-01T17:25:30.097Z,100323.55
2018-12-01T17:33:51.148Z,100308.88
2018-12-01T17:42:12.181Z,100284.28
2018-12-01T17:50:33.211Z,100267.13
2018-12-01T17:58:54.278Z,100243.64
2018-12-01T18:07:15.283Z,100218.27
2018-12-01T18:15:36.287Z,100200.00
2018-12-01T18:23:57.280Z,100195.75
2018-12-01T18:32:18.286Z,100189.52
2018-12-01T18:40:39.276Z,100184.67
2018-12-01T18:49:00.279Z,100173.52
2018-12-01T18:57:21.289Z,100155.33
2018-12-01T19:05:42.320Z,100138.21
2018-12-01T19:14:03.398Z,100124.92
2018-12-01T19:22:24.403Z,100094.67
2018-12-01T19:30:45.468Z,100075.81
2018-12-01T19:39:06.475Z,100071.80
2018-12-01T19:47:27.484Z,100054.70
2018-12-01T19:55:48.498Z,100050.55
2018-12-01T20:04:09.507Z,100041.66
2018-12-01T20:12:30.534Z,100062.19
2018-12-01T20:20:51.559Z,100043.98
2018-12-01T20:29:12.596Z,100020.18
2018-12-01T20:37:33.913Z,100027.38
2018-12-01T20:45:54.987Z,100013.42
2018-12-01T20:54:16.118Z,100007.03
2018-12-01T21:02:37.127Z,100003.65
2018-12-01T21:10:58.108Z,99994.05
2018-12-01T21:19:19.185Z,99980.20
2018-12-01T21:27:40.200Z,99964.84
2018-12-01T21:36:01.212Z,99958.33
2018-12-01T21:44:22.242Z,99942.82
2018-12-01T21:52:43.247Z,99937.34
2018-12-01T22:01:04.264Z,99924.89
2018-12-01T22:09:25.249Z,99924.69
2018-12-01T22:17:46.228Z,99913.95
2018-12-01T22:26:07.212Z,99922.48
2018-12-01T22:34:28.193Z,99920.16
2018-12-01T22:42:49.288Z,99908.66
2018-12-01T22:51:10.271Z,99907.66
2018-12-01T22:59:31.252Z,99899.26
2018-12-01T23:07:52.238Z,99899.72
2018-12-01T23:16:13.221Z,99883.72
2018-12-01T23:24:34.204Z,99895.68
2018-12-01T23:32:55.547Z,99875.38
2018-12-01T23:41:16.537Z,99861.13
2018-12-01T23:49:37.516Z,99835.96
2018-12-01T23:57:58.623Z,99828.45
